sensor_id;sensor_type;location;lat;lon;timestamp;temperature;humidity
20598;DHT22;10457;48.770;11.446;2022-10-16T00:04:09;14.30;99.90
20598;DHT22;10457;48.770;11.446;2022-10-16T00:09:32;14.40;99.90
20598;DHT22;10457;48.770;11.446;2022-10-16T00:14:53;14.50;99.90
20598;DHT22;10457;48.770;11.446;2022-10-16T00:20:15;14.50;99.90
20598;DHT22;10457;48.770;11.446;2022-10-16T00:25:40;14.40;99.90
20598;DHT22;10457;48.770;11.446;2022-10-16T00:31:03;14.30;99.90
20598;DHT22;10457;48.770;11.446;2022-10-16T00:36:25;14.30;99.90
20598;DHT22;10457;48.770;11.446;2022-10-16T00:41:48;14.30;99.90
20598;DHT22;10457;48.770;11.446;2022-10-16T00:47:11;14.30;99.90
20598;DHT22;10457;48.770;11.446;2022-10-16T00:52:35;14.20;99.90
20598;DHT22;10457;48.770;11.446;2022-10-16T00:57:59;14.30;99.90
20598;DHT22;10457;48.770;11.446;2022-10-16T01:03:26;14.10;99.90
20598;DHT22;10457;48.770;11.446;2022-10-16T01:09:05;14.20;99.90
20598;DHT22;10457;48.770;11.446;2022-10-16T01:14:40;14.10;99.90
20598;DHT22;10457;48.770;11.446;2022-10-16T01:20:14;14.00;99.90
20598;DHT22;10457;48.770;11.446;2022-10-16T01:25:59;13.90;99.90
20598;DHT22;10457;48.770;11.446;2022-10-16T01:31:33;13.90;99.90
20598;DHT22;10457;48.770;11.446;2022-10-16T01:36:59;13.80;99.90
20598;DHT22;10457;48.770;11.446;2022-10-16T01:42:27;13.80;99.90
20598;DHT22;10457;48.770;11.446;2022-10-16T01:47:53;13.80;99.90
20598;DHT22;10457;48.770;11.446;2022-10-16T01:53:15;13.80;99.90
20598;DHT22;10457;48.770;11.446;2022-10-16T01:58:41;13.70;99.90
20598;DHT22;10457;48.770;11.446;2022-10-16T02:04:10;13.70;99.90
20598;DHT22;10457;48.770;11.446;2022-10-16T02:09:34;13.70;99.90
20598;DHT22;10457;48.770;11.446;2022-10-16T02:14:56;13.60;99.90
20598;DHT22;10457;48.770;11.446;2022-10-16T02:20:23;13.50;99.90
20598;DHT22;10457;48.770;11.446;2022-10-16T02:25:50;13.40;99.90
20598;DHT22;10457;48.770;11.446;2022-10-16T02:31:18;13.30;99.90
20598;DHT22;10457;48.770;11.446;2022-10-16T02:36:44;13.30;99.90
20598;DHT22;10457;48.770;11.446;2022-10-16T02:42:10;13.30;99.90
20598;DHT22;10457;48.770;11.446;2022-10-16T02:47:32;13.20;99.90
20598;DHT22;10457;48.770;11.446;2022-10-16T02:52:55;13.10;99.90
20598;DHT22;10457;48.770;11.446;2022-10-16T02:58:17;12.90;99.90
20598;DHT22;10457;48.770;11.446;2022-10-16T03:03:38;12.90;99.90
20598;DHT22;10457;48.770;11.446;2022-10-16T03:09:01;12.80;99.90
20598;DHT22;10457;48.770;11.446;2022-10-16T03:14:23;12.80;99.90
20598;DHT22;10457;48.770;11.446;2022-10-16T03:19:44;12.80;99.90
20598;DHT22;10457;48.770;11.446;2022-10-16T03:25:08;12.90;99.90
20598;DHT22;10457;48.770;11.446;2022-10-16T03:30:29;12.90;99.90
20598;DHT22;10457;48.770;11.446;2022-10-16T03:35:51;12.90;99.90
20598;DHT22;10457;48.770;11.446;2022-10-16T03:41:15;13.00;99.90
20598;DHT22;10457;48.770;11.446;2022-10-16T03:46:36;13.10;99.90
20598;DHT22;10457;48.770;11.446;2022-10-16T03:51:58;13.00;99.90
20598;DHT22;10457;48.770;11.446;2022-10-16T03:57:21;13.10;99.90
20598;DHT22;10457;48.770;11.446;2022-10-16T04:02:42;13.10;99.90
20598;DHT22;10457;48.770;11.446;2022-10-16T04:08:04;13.10;99.90
20598;DHT22;10457;48.770;11.446;2022-10-16T04:13:27;13.10;99.90
20598;DHT22;10457;48.770;11.446;2022-10-16T04:18:48;13.10;99.90
20598;DHT22;10457;48.770;11.446;2022-10-16T04:24:10;13.10;99.90
20598;DHT22;10457;48.770;11.446;2022-10-16T04:29:33;13.10;99.90
20598;DHT22;10457;48.770;11.446;2022-10-16T04:34:55;13.20;99.90
20598;DHT22;10457;48.770;11.446;2022-10-16T04:40:16;13.20;99.90
20598;DHT22;10457;48.770;11.446;2022-10-16T04:45:40;13.30;99.90
20598;DHT22;10457;48.770;11.446;2022-10-16T04:51:07;13.20;99.90
20598;DHT22;10457;48.770;11.446;2022-10-16T04:56:29;13.20;99.90
20598;DHT22;10457;48.770;11.446;2022-10-16T05:01:52;13.30;99.90
20598;DHT22;10457;48.770;11.446;2022-10-16T05:07:14;13.30;99.90
20598;DHT22;10457;48.770;11.446;2022-10-16T05:12:35;13.40;99.90
20598;DHT22;10457;48.770;11.446;2022-10-16T05:17:58;13.40;99.90
20598;DHT22;10457;48.770;11.446;2022-10-16T05:23:20;13.40;99.90
20598;DHT22;10457;48.770;11.446;2022-10-16T05:28:41;13.30;99.90
20598;DHT22;10457;48.770;11.446;2022-10-16T05:34:04;13.30;99.90
20598;DHT22;10457;48.770;11.446;2022-10-16T05:39:25;13.20;99.90
20598;DHT22;10457;48.770;11.446;2022-10-16T05:44:47;13.20;99.90
20598;DHT22;10457;48.770;11.446;2022-10-16T05:50:10;13.20;99.90
20598;DHT22;10457;48.770;11.446;2022-10-16T05:55:31;13.20;99.90
20598;DHT22;10457;48.770;11.446;2022-10-16T06:00:54;13.20;99.90
20598;DHT22;10457;48.770;11.446;2022-10-16T06:06:18;13.30;99.90
20598;DHT22;10457;48.770;11.446;2022-10-16T06:11:40;13.40;99.90
20598;DHT22;10457;48.770;11.446;2022-10-16T06:17:02;13.50;99.90
20598;DHT22;10457;48.770;11.446;2022-10-16T06:22:25;13.50;99.90
20598;DHT22;10457;48.770;11.446;2022-10-16T06:27:46;13.70;99.90
20598;DHT22;10457;48.770;11.446;2022-10-16T06:33:08;13.90;99.90
20598;DHT22;10457;48.770;11.446;2022-10-16T06:38:34;14.10;99.90
20598;DHT22;10457;48.770;11.446;2022-10-16T06:43:55;14.10;99.90
20598;DHT22;10457;48.770;11.446;2022-10-16T06:49:17;14.30;99.90
20598;DHT22;10457;48.770;11.446;2022-10-16T06:54:43;14.40;99.90
20598;DHT22;10457;48.770;11.446;2022-10-16T07:00:06;14.50;99.90
20598;DHT22;10457;48.770;11.446;2022-10-16T07:05:30;14.60;99.90
20598;DHT22;10457;48.770;11.446;2022-10-16T07:10:59;14.80;99.90
20598;DHT22;10457;48.770;11.446;2022-10-16T07:16:23;14.70;99.90
20598;DHT22;10457;48.770;11.446;2022-10-16T07:21:45;14.80;99.90
20598;DHT22;10457;48.770;11.446;2022-10-16T07:27:08;15.60;99.90
20598;DHT22;10457;48.770;11.446;2022-10-16T07:32:30;17.20;99.90
20598;DHT22;10457;48.770;11.446;2022-10-16T07:37:52;18.10;96.60
20598;DHT22;10457;48.770;11.446;2022-10-16T07:43:15;19.70;82.50
20598;DHT22;10457;48.770;11.446;2022-10-16T07:48:37;20.90;76.40
20598;DHT22;10457;48.770;11.446;2022-10-16T07:53:58;21.90;70.50
20598;DHT22;10457;48.770;11.446;2022-10-16T07:59:21;23.10;65.20
20598;DHT22;10457;48.770;11.446;2022-10-16T08:04:43;25.20;58.60
20598;DHT22;10457;48.770;11.446;2022-10-16T08:10:05;24.70;59.00
20598;DHT22;10457;48.770;11.446;2022-10-16T08:15:28;22.70;65.90
20598;DHT22;10457;48.770;11.446;2022-10-16T08:20:55;23.50;65.80
20598;DHT22;10457;48.770;11.446;2022-10-16T08:26:17;25.80;56.70
20598;DHT22;10457;48.770;11.446;2022-10-16T08:31:41;27.50;52.00
20598;DHT22;10457;48.770;11.446;2022-10-16T08:37:03;29.00;48.80
20598;DHT22;10457;48.770;11.446;2022-10-16T08:42:36;29.00;48.90
20598;DHT22;10457;48.770;11.446;2022-10-16T08:48:15;29.50;47.60
20598;DHT22;10457;48.770;11.446;2022-10-16T08:53:46;28.30;48.10
20598;DHT22;10457;48.770;11.446;2022-10-16T08:59:12;27.60;49.60
20598;DHT22;10457;48.770;11.446;2022-10-16T09:04:57;28.70;48.30
20598;DHT22;10457;48.770;11.446;2022-10-16T09:10:33;28.80;48.70
20598;DHT22;10457;48.770;11.446;2022-10-16T09:16:12;28.70;49.50
20598;DHT22;10457;48.770;11.446;2022-10-16T09:21:41;28.30;49.10
20598;DHT22;10457;48.770;11.446;2022-10-16T09:27:03;28.90;46.40
20598;DHT22;10457;48.770;11.446;2022-10-16T09:32:25;28.80;47.40
20598;DHT22;10457;48.770;11.446;2022-10-16T09:37:51;28.60;47.00
20598;DHT22;10457;48.770;11.446;2022-10-16T09:43:21;27.80;48.80
20598;DHT22;10457;48.770;11.446;2022-10-16T09:48:48;26.80;49.70
20598;DHT22;10457;48.770;11.446;2022-10-16T09:54:19;25.70;52.00
20598;DHT22;10457;48.770;11.446;2022-10-16T09:59:46;25.60;52.20
20598;DHT22;10457;48.770;11.446;2022-10-16T10:05:19;25.00;52.60
20598;DHT22;10457;48.770;11.446;2022-10-16T10:10:44;25.20;55.20
20598;DHT22;10457;48.770;11.446;2022-10-16T10:16:10;24.90;53.80
20598;DHT22;10457;48.770;11.446;2022-10-16T10:21:33;26.70;52.40
20598;DHT22;10457;48.770;11.446;2022-10-16T10:27:03;28.00;50.80
20598;DHT22;10457;48.770;11.446;2022-10-16T10:32:35;30.80;47.80
20598;DHT22;10457;48.770;11.446;2022-10-16T10:38:13;30.50;43.60
20598;DHT22;10457;48.770;11.446;2022-10-16T10:43:54;30.40;44.20
20598;DHT22;10457;48.770;11.446;2022-10-16T10:49:32;32.70;41.90
20598;DHT22;10457;48.770;11.446;2022-10-16T10:55:05;34.10;39.20
20598;DHT22;10457;48.770;11.446;2022-10-16T11:00:42;33.80;38.30
20598;DHT22;10457;48.770;11.446;2022-10-16T11:06:36;34.40;37.20
20598;DHT22;10457;48.770;11.446;2022-10-16T11:12:05;36.30;36.40
20598;DHT22;10457;48.770;11.446;2022-10-16T11:17:35;36.20;33.40
20598;DHT22;10457;48.770;11.446;2022-10-16T11:23:07;33.70;36.70
20598;DHT22;10457;48.770;11.446;2022-10-16T11:28:35;32.10;38.10
20598;DHT22;10457;48.770;11.446;2022-10-16T11:34:04;29.10;42.80
20598;DHT22;10457;48.770;11.446;2022-10-16T11:39:29;29.50;43.50
20598;DHT22;10457;48.770;11.446;2022-10-16T11:44:55;31.00;42.10
20598;DHT22;10457;48.770;11.446;2022-10-16T11:50:25;30.90;41.80
20598;DHT22;10457;48.770;11.446;2022-10-16T11:55:50;29.60;43.20
20598;DHT22;10457;48.770;11.446;2022-10-16T12:01:18;31.40;40.70
20598;DHT22;10457;48.770;11.446;2022-10-16T12:06:47;31.80;40.10
20598;DHT22;10457;48.770;11.446;2022-10-16T12:12:25;29.60;43.50
20598;DHT22;10457;48.770;11.446;2022-10-16T12:17:48;26.70;49.50
20598;DHT22;10457;48.770;11.446;2022-10-16T12:23:20;27.60;49.30
20598;DHT22;10457;48.770;11.446;2022-10-16T12:28:43;28.80;46.10
20598;DHT22;10457;48.770;11.446;2022-10-16T12:34:21;28.30;47.10
20598;DHT22;10457;48.770;11.446;2022-10-16T12:39:46;27.90;48.20
20598;DHT22;10457;48.770;11.446;2022-10-16T12:45:25;28.30;47.50
20598;DHT22;10457;48.770;11.446;2022-10-16T12:50:48;28.00;49.10
20598;DHT22;10457;48.770;11.446;2022-10-16T12:56:15;28.50;47.00
20598;DHT22;10457;48.770;11.446;2022-10-16T13:02:01;33.00;40.20
20598;DHT22;10457;48.770;11.446;2022-10-16T13:07:48;34.60;37.90
20598;DHT22;10457;48.770;11.446;2022-10-16T13:13:34;35.50;37.80
20598;DHT22;10457;48.770;11.446;2022-10-16T13:19:13;36.20;35.00
20598;DHT22;10457;48.770;11.446;2022-10-16T13:24:56;36.20;33.50
20598;DHT22;10457;48.770;11.446;2022-10-16T13:30:26;36.30;34.60
20598;DHT22;10457;48.770;11.446;2022-10-16T13:35:51;34.80;34.40
20598;DHT22;10457;48.770;11.446;2022-10-16T13:41:16;34.90;34.50
20598;DHT22;10457;48.770;11.446;2022-10-16T13:46:39;34.70;34.90
20598;DHT22;10457;48.770;11.446;2022-10-16T13:52:00;33.20;35.30
20598;DHT22;10457;48.770;11.446;2022-10-16T13:57:24;31.60;36.20
20598;DHT22;10457;48.770;11.446;2022-10-16T14:02:51;30.10;38.00
20598;DHT22;10457;48.770;11.446;2022-10-16T14:08:20;29.20;40.30
20598;DHT22;10457;48.770;11.446;2022-10-16T14:13:44;28.00;42.60
20598;DHT22;10457;48.770;11.446;2022-10-16T14:19:15;27.30;44.30
20598;DHT22;10457;48.770;11.446;2022-10-16T14:24:40;26.70;46.10
20598;DHT22;10457;48.770;11.446;2022-10-16T14:30:14;25.90;47.20
20598;DHT22;10457;48.770;11.446;2022-10-16T14:35:40;25.60;48.70
20598;DHT22;10457;48.770;11.446;2022-10-16T14:41:01;25.50;50.90
20598;DHT22;10457;48.770;11.446;2022-10-16T14:46:31;25.40;49.70
20598;DHT22;10457;48.770;11.446;2022-10-16T14:51:56;25.10;50.90
20598;DHT22;10457;48.770;11.446;2022-10-16T14:57:22;24.80;54.10
20598;DHT22;10457;48.770;11.446;2022-10-16T15:02:49;24.70;55.20
20598;DHT22;10457;48.770;11.446;2022-10-16T15:08:13;24.40;51.30
20598;DHT22;10457;48.770;11.446;2022-10-16T15:13:35;24.10;55.10
20598;DHT22;10457;48.770;11.446;2022-10-16T15:18:57;23.70;59.30
20598;DHT22;10457;48.770;11.446;2022-10-16T15:24:27;23.30;61.90
20598;DHT22;10457;48.770;11.446;2022-10-16T15:29:48;23.00;57.20
20598;DHT22;10457;48.770;11.446;2022-10-16T15:35:10;22.80;61.80
20598;DHT22;10457;48.770;11.446;2022-10-16T15:40:33;22.50;65.70
20598;DHT22;10457;48.770;11.446;2022-10-16T15:46:00;22.10;69.30
20598;DHT22;10457;48.770;11.446;2022-10-16T15:51:22;21.70;66.00
20598;DHT22;10457;48.770;11.446;2022-10-16T15:56:47;21.40;69.80
20598;DHT22;10457;48.770;11.446;2022-10-16T16:02:08;21.10;72.30
20598;DHT22;10457;48.770;11.446;2022-10-16T16:07:32;20.90;72.80
20598;DHT22;10457;48.770;11.446;2022-10-16T16:12:56;20.70;70.60
20598;DHT22;10457;48.770;11.446;2022-10-16T16:18:18;20.60;71.00
20598;DHT22;10457;48.770;11.446;2022-10-16T16:23:40;20.60;73.80
20598;DHT22;10457;48.770;11.446;2022-10-16T16:29:03;20.20;78.10
20598;DHT22;10457;48.770;11.446;2022-10-16T16:34:26;19.90;81.00
20598;DHT22;10457;48.770;11.446;2022-10-16T16:39:48;19.70;82.90
20598;DHT22;10457;48.770;11.446;2022-10-16T16:45:11;19.50;85.40
20598;DHT22;10457;48.770;11.446;2022-10-16T16:50:42;19.50;86.80
20598;DHT22;10457;48.770;11.446;2022-10-16T16:56:04;19.30;87.50
20598;DHT22;10457;48.770;11.446;2022-10-16T17:01:28;19.20;88.90
20598;DHT22;10457;48.770;11.446;2022-10-16T17:06:51;19.10;88.30
20598;DHT22;10457;48.770;11.446;2022-10-16T17:12:13;19.20;85.70
20598;DHT22;10457;48.770;11.446;2022-10-16T17:17:36;19.20;85.00
20598;DHT22;10457;48.770;11.446;2022-10-16T17:23:01;19.10;86.10
20598;DHT22;10457;48.770;11.446;2022-10-16T17:28:22;18.90;87.90
20598;DHT22;10457;48.770;11.446;2022-10-16T17:33:45;18.80;90.30
20598;DHT22;10457;48.770;11.446;2022-10-16T17:39:09;18.70;91.50
20598;DHT22;10457;48.770;11.446;2022-10-16T17:44:32;18.60;94.50
20598;DHT22;10457;48.770;11.446;2022-10-16T17:49:55;18.50;96.20
20598;DHT22;10457;48.770;11.446;2022-10-16T17:55:17;18.40;96.90
20598;DHT22;10457;48.770;11.446;2022-10-16T18:00:39;18.30;99.10
20598;DHT22;10457;48.770;11.446;2022-10-16T18:06:04;18.30;99.50
20598;DHT22;10457;48.770;11.446;2022-10-16T18:11:26;18.20;99.50
20598;DHT22;10457;48.770;11.446;2022-10-16T18:16:48;18.00;99.90
20598;DHT22;10457;48.770;11.446;2022-10-16T18:22:13;18.10;99.90
20598;DHT22;10457;48.770;11.446;2022-10-16T18:27:34;18.00;99.90
20598;DHT22;10457;48.770;11.446;2022-10-16T18:32:56;18.00;99.90
20598;DHT22;10457;48.770;11.446;2022-10-16T18:38:19;17.90;99.90
20598;DHT22;10457;48.770;11.446;2022-10-16T18:43:41;17.90;99.90
20598;DHT22;10457;48.770;11.446;2022-10-16T18:49:04;17.90;99.90
20598;DHT22;10457;48.770;11.446;2022-10-16T18:54:27;17.80;99.90
20598;DHT22;10457;48.770;11.446;2022-10-16T18:59:49;17.80;99.90
20598;DHT22;10457;48.770;11.446;2022-10-16T19:05:10;17.70;99.90
20598;DHT22;10457;48.770;11.446;2022-10-16T19:10:36;17.50;99.90
20598;DHT22;10457;48.770;11.446;2022-10-16T19:15:58;17.30;99.90
20598;DHT22;10457;48.770;11.446;2022-10-16T19:21:21;17.20;99.90
20598;DHT22;10457;48.770;11.446;2022-10-16T19:26:44;17.00;99.90
20598;DHT22;10457;48.770;11.446;2022-10-16T19:32:05;16.80;99.90
20598;DHT22;10457;48.770;11.446;2022-10-16T19:37:27;16.70;99.90
20598;DHT22;10457;48.770;11.446;2022-10-16T19:42:50;16.60;99.90
20598;DHT22;10457;48.770;11.446;2022-10-16T19:48:11;16.60;99.90
20598;DHT22;10457;48.770;11.446;2022-10-16T19:53:33;16.60;99.90
20598;DHT22;10457;48.770;11.446;2022-10-16T19:58:56;16.60;99.90
20598;DHT22;10457;48.770;11.446;2022-10-16T20:04:19;16.70;99.90
20598;DHT22;10457;48.770;11.446;2022-10-16T20:09:40;16.80;99.90
20598;DHT22;10457;48.770;11.446;2022-10-16T20:15:03;16.80;99.90
20598;DHT22;10457;48.770;11.446;2022-10-16T20:20:26;16.70;99.90
20598;DHT22;10457;48.770;11.446;2022-10-16T20:25:48;16.70;99.90
20598;DHT22;10457;48.770;11.446;2022-10-16T20:31:14;16.70;99.90
20598;DHT22;10457;48.770;11.446;2022-10-16T20:36:39;16.70;99.90
20598;DHT22;10457;48.770;11.446;2022-10-16T20:42:04;16.70;99.90
20598;DHT22;10457;48.770;11.446;2022-10-16T20:47:27;16.50;99.90
20598;DHT22;10457;48.770;11.446;2022-10-16T20:52:49;16.30;99.90
20598;DHT22;10457;48.770;11.446;2022-10-16T20:58:10;16.20;99.90
20598;DHT22;10457;48.770;11.446;2022-10-16T21:03:42;16.00;99.90
20598;DHT22;10457;48.770;11.446;2022-10-16T21:09:06;15.80;99.90
20598;DHT22;10457;48.770;11.446;2022-10-16T21:14:29;15.80;99.90
20598;DHT22;10457;48.770;11.446;2022-10-16T21:20:01;15.70;99.90
20598;DHT22;10457;48.770;11.446;2022-10-16T21:25:23;15.60;99.90
20598;DHT22;10457;48.770;11.446;2022-10-16T21:30:45;15.50;99.90
20598;DHT22;10457;48.770;11.446;2022-10-16T21:36:16;15.30;99.90
20598;DHT22;10457;48.770;11.446;2022-10-16T21:41:40;15.30;99.90
20598;DHT22;10457;48.770;11.446;2022-10-16T21:47:02;15.20;99.90
20598;DHT22;10457;48.770;11.446;2022-10-16T21:52:25;15.20;99.90
20598;DHT22;10457;48.770;11.446;2022-10-16T21:57:46;15.10;99.90
20598;DHT22;10457;48.770;11.446;2022-10-16T22:03:08;15.20;99.90
20598;DHT22;10457;48.770;11.446;2022-10-16T22:08:31;15.20;99.90
20598;DHT22;10457;48.770;11.446;2022-10-16T22:13:54;15.10;99.90
20598;DHT22;10457;48.770;11.446;2022-10-16T22:19:18;15.00;99.90
20598;DHT22;10457;48.770;11.446;2022-10-16T22:24:42;14.90;99.90
20598;DHT22;10457;48.770;11.446;2022-10-16T22:30:04;14.90;99.90
20598;DHT22;10457;48.770;11.446;2022-10-16T22:35:35;14.80;99.90
20598;DHT22;10457;48.770;11.446;2022-10-16T22:41:01;14.60;99.90
20598;DHT22;10457;48.770;11.446;2022-10-16T22:46:25;14.60;99.90
20598;DHT22;10457;48.770;11.446;2022-10-16T22:51:48;14.50;99.90
20598;DHT22;10457;48.770;11.446;2022-10-16T22:57:11;14.50;99.90
20598;DHT22;10457;48.770;11.446;2022-10-16T23:02:33;14.50;99.90
20598;DHT22;10457;48.770;11.446;2022-10-16T23:07:54;14.50;99.90
20598;DHT22;10457;48.770;11.446;2022-10-16T23:13:17;14.30;99.90
20598;DHT22;10457;48.770;11.446;2022-10-16T23:18:38;14.30;99.90
20598;DHT22;10457;48.770;11.446;2022-10-16T23:24:01;14.20;99.90
20598;DHT22;10457;48.770;11.446;2022-10-16T23:29:24;14.20;99.90
20598;DHT22;10457;48.770;11.446;2022-10-16T23:34:49;14.30;99.90
20598;DHT22;10457;48.770;11.446;2022-10-16T23:40:11;14.20;99.90
20598;DHT22;10457;48.770;11.446;2022-10-16T23:45:34;14.20;99.90
20598;DHT22;10457;48.770;11.446;2022-10-16T23:50:55;14.10;99.90
20598;DHT22;10457;48.770;11.446;2022-10-16T23:56:17;14.10;99.90
